sensor_id;sensor_type;location;lat;lon;timestamp;P1;durP1;ratioP1;P2;durP2;ratioP2
2646;SDS011;1333;50.958;6.770;2023-04-06T00:01:35;8.03;;;4.60;;
2646;SDS011;1333;50.958;6.770;2023-04-06T00:04:00;6.93;;;5.00;;
2646;SDS011;1333;50.958;6.770;2023-04-06T00:06:26;8.23;;;5.73;;
2646;SDS011;1333;50.958;6.770;2023-04-06T00:08:51;10.17;;;5.03;;
2646;SDS011;1333;50.958;6.770;2023-04-06T00:11:17;12.57;;;6.97;;
2646;SDS011;1333;50.958;6.770;2023-04-06T00:13:43;12.50;;;6.90;;
2646;SDS011;1333;50.958;6.770;2023-04-06T00:16:08;11.50;;;6.83;;
2646;SDS011;1333;50.958;6.770;2023-04-06T00:18:34;8.13;;;6.00;;
2646;SDS011;1333;50.958;6.770;2023-04-06T00:20:59;10.03;;;6.50;;
2646;SDS011;1333;50.958;6.770;2023-04-06T00:23:25;23.70;;;7.20;;
2646;SDS011;1333;50.958;6.770;2023-04-06T00:25:50;10.50;;;6.60;;
2646;SDS011;1333;50.958;6.770;2023-04-06T00:28:16;15.20;;;6.83;;
2646;SDS011;1333;50.958;6.770;2023-04-06T00:30:42;12.57;;;6.50;;
2646;SDS011;1333;50.958;6.770;2023-04-06T00:33:07;10.07;;;6.73;;
2646;SDS011;1333;50.958;6.770;2023-04-06T00:35:33;13.50;;;7.30;;
2646;SDS011;1333;50.958;6.770;2023-04-06T00:37:59;12.67;;;6.37;;
2646;SDS011;1333;50.958;6.770;2023-04-06T00:40:25;9.57;;;6.03;;
2646;SDS011;1333;50.958;6.770;2023-04-06T00:42:53;10.47;;;6.57;;
2646;SDS011;1333;50.958;6.770;2023-04-06T00:45:19;12.53;;;6.37;;
2646;SDS011;1333;50.958;6.770;2023-04-06T00:47:44;10.43;;;7.37;;
2646;SDS011;1333;50.958;6.770;2023-04-06T00:50:10;10.17;;;5.63;;
2646;SDS011;1333;50.958;6.770;2023-04-06T00:52:36;11.37;;;6.17;;
2646;SDS011;1333;50.958;6.770;2023-04-06T00:55:02;9.60;;;5.60;;
2646;SDS011;1333;50.958;6.770;2023-04-06T00:57:28;16.10;;;5.50;;
2646;SDS011;1333;50.958;6.770;2023-04-06T00:59:53;7.57;;;5.53;;
2646;SDS011;1333;50.958;6.770;2023-04-06T01:02:19;8.10;;;5.83;;
2646;SDS011;1333;50.958;6.770;2023-04-06T01:04:45;10.17;;;5.90;;
2646;SDS011;1333;50.958;6.770;2023-04-06T01:07:11;8.00;;;5.20;;
2646;SDS011;1333;50.958;6.770;2023-04-06T01:09:36;7.67;;;5.20;;
2646;SDS011;1333;50.958;6.770;2023-04-06T01:12:02;10.20;;;5.73;;
2646;SDS011;1333;50.958;6.770;2023-04-06T01:14:28;6.57;;;5.00;;
2646;SDS011;1333;50.958;6.770;2023-04-06T01:16:57;10.37;;;5.87;;
2646;SDS011;1333;50.958;6.770;2023-04-06T01:19:25;10.10;;;5.60;;
2646;SDS011;1333;50.958;6.770;2023-04-06T01:21:51;14.33;;;6.43;;
2646;SDS011;1333;50.958;6.770;2023-04-06T01:24:18;15.93;;;7.67;;
2646;SDS011;1333;50.958;6.770;2023-04-06T01:26:44;9.33;;;6.40;;
2646;SDS011;1333;50.958;6.770;2023-04-06T01:29:10;11.30;;;6.80;;
2646;SDS011;1333;50.958;6.770;2023-04-06T01:31:35;9.77;;;5.57;;
2646;SDS011;1333;50.958;6.770;2023-04-06T01:34:01;9.77;;;6.10;;
2646;SDS011;1333;50.958;6.770;2023-04-06T01:36:26;11.83;;;6.17;;
2646;SDS011;1333;50.958;6.770;2023-04-06T01:38:52;11.53;;;5.50;;
2646;SDS011;1333;50.958;6.770;2023-04-06T01:41:17;15.23;;;6.17;;
2646;SDS011;1333;50.958;6.770;2023-04-06T01:43:44;21.20;;;8.80;;
2646;SDS011;1333;50.958;6.770;2023-04-06T01:46:10;12.30;;;7.70;;
2646;SDS011;1333;50.958;6.770;2023-04-06T01:48:35;10.10;;;5.97;;
2646;SDS011;1333;50.958;6.770;2023-04-06T01:51:01;9.97;;;7.10;;
2646;SDS011;1333;50.958;6.770;2023-04-06T01:53:27;8.17;;;4.90;;
2646;SDS011;1333;50.958;6.770;2023-04-06T01:55:52;11.67;;;7.27;;
2646;SDS011;1333;50.958;6.770;2023-04-06T01:58:18;8.70;;;5.57;;
2646;SDS011;1333;50.958;6.770;2023-04-06T02:00:43;7.37;;;5.37;;
2646;SDS011;1333;50.958;6.770;2023-04-06T02:03:09;11.50;;;8.10;;
2646;SDS011;1333;50.958;6.770;2023-04-06T02:05:35;9.33;;;5.60;;
2646;SDS011;1333;50.958;6.770;2023-04-06T02:08:06;17.00;;;6.47;;
2646;SDS011;1333;50.958;6.770;2023-04-06T02:10:33;10.97;;;5.80;;
2646;SDS011;1333;50.958;6.770;2023-04-06T02:12:59;9.70;;;5.73;;
2646;SDS011;1333;50.958;6.770;2023-04-06T02:15:25;9.10;;;5.13;;
2646;SDS011;1333;50.958;6.770;2023-04-06T02:17:51;9.63;;;6.20;;
2646;SDS011;1333;50.958;6.770;2023-04-06T02:20:17;10.53;;;5.90;;
2646;SDS011;1333;50.958;6.770;2023-04-06T02:22:42;11.03;;;5.20;;
2646;SDS011;1333;50.958;6.770;2023-04-06T02:25:08;8.00;;;5.30;;
2646;SDS011;1333;50.958;6.770;2023-04-06T02:27:34;8.53;;;5.87;;
2646;SDS011;1333;50.958;6.770;2023-04-06T02:30:01;6.63;;;4.50;;
2646;SDS011;1333;50.958;6.770;2023-04-06T02:32:27;8.00;;;4.60;;
2646;SDS011;1333;50.958;6.770;2023-04-06T02:34:52;16.80;;;7.73;;
2646;SDS011;1333;50.958;6.770;2023-04-06T02:37:18;16.10;;;7.07;;
2646;SDS011;1333;50.958;6.770;2023-04-06T02:39:44;7.93;;;5.27;;
2646;SDS011;1333;50.958;6.770;2023-04-06T02:42:10;9.80;;;6.30;;
2646;SDS011;1333;50.958;6.770;2023-04-06T02:44:36;8.70;;;5.10;;
2646;SDS011;1333;50.958;6.770;2023-04-06T02:47:01;12.57;;;5.00;;
2646;SDS011;1333;50.958;6.770;2023-04-06T02:49:27;10.07;;;5.30;;
2646;SDS011;1333;50.958;6.770;2023-04-06T02:51:52;8.53;;;5.83;;
2646;SDS011;1333;50.958;6.770;2023-04-06T02:54:18;6.07;;;5.23;;
2646;SDS011;1333;50.958;6.770;2023-04-06T02:56:43;11.13;;;5.33;;
2646;SDS011;1333;50.958;6.770;2023-04-06T02:59:09;7.57;;;5.97;;
2646;SDS011;1333;50.958;6.770;2023-04-06T03:01:35;4.87;;;4.23;;
2646;SDS011;1333;50.958;6.770;2023-04-06T03:04:01;7.57;;;5.80;;
2646;SDS011;1333;50.958;6.770;2023-04-06T03:06:27;9.70;;;5.50;;
2646;SDS011;1333;50.958;6.770;2023-04-06T03:08:52;8.70;;;5.93;;
2646;SDS011;1333;50.958;6.770;2023-04-06T03:11:18;11.90;;;5.90;;
2646;SDS011;1333;50.958;6.770;2023-04-06T03:13:44;7.67;;;5.30;;
2646;SDS011;1333;50.958;6.770;2023-04-06T03:16:09;10.27;;;5.80;;
2646;SDS011;1333;50.958;6.770;2023-04-06T03:18:35;7.20;;;5.13;;
2646;SDS011;1333;50.958;6.770;2023-04-06T03:21:01;8.67;;;4.93;;
2646;SDS011;1333;50.958;6.770;2023-04-06T03:23:26;10.63;;;5.73;;
2646;SDS011;1333;50.958;6.770;2023-04-06T03:25:52;13.10;;;6.70;;
2646;SDS011;1333;50.958;6.770;2023-04-06T03:28:17;11.30;;;5.73;;
2646;SDS011;1333;50.958;6.770;2023-04-06T03:30:43;17.33;;;6.17;;
2646;SDS011;1333;50.958;6.770;2023-04-06T03:33:09;7.63;;;5.17;;
2646;SDS011;1333;50.958;6.770;2023-04-06T03:35:35;7.57;;;5.07;;
2646;SDS011;1333;50.958;6.770;2023-04-06T03:38:01;9.20;;;5.70;;
2646;SDS011;1333;50.958;6.770;2023-04-06T03:40:27;8.60;;;5.57;;
2646;SDS011;1333;50.958;6.770;2023-04-06T03:42:53;9.63;;;5.77;;
2646;SDS011;1333;50.958;6.770;2023-04-06T03:45:18;8.33;;;4.90;;
2646;SDS011;1333;50.958;6.770;2023-04-06T03:47:44;7.47;;;4.67;;
2646;SDS011;1333;50.958;6.770;2023-04-06T03:50:10;10.37;;;6.27;;
2646;SDS011;1333;50.958;6.770;2023-04-06T03:52:35;9.50;;;5.90;;
2646;SDS011;1333;50.958;6.770;2023-04-06T03:55:01;8.20;;;5.70;;
2646;SDS011;1333;50.958;6.770;2023-04-06T03:57:27;9.03;;;4.93;;
2646;SDS011;1333;50.958;6.770;2023-04-06T03:59:52;9.23;;;5.43;;
2646;SDS011;1333;50.958;6.770;2023-04-06T04:02:18;7.93;;;5.70;;
2646;SDS011;1333;50.958;6.770;2023-04-06T04:04:43;10.53;;;5.63;;
2646;SDS011;1333;50.958;6.770;2023-04-06T04:07:09;10.53;;;4.90;;
2646;SDS011;1333;50.958;6.770;2023-04-06T04:09:34;9.47;;;5.33;;
2646;SDS011;1333;50.958;6.770;2023-04-06T04:12:01;8.30;;;4.13;;
2646;SDS011;1333;50.958;6.770;2023-04-06T04:14:26;11.33;;;5.47;;
2646;SDS011;1333;50.958;6.770;2023-04-06T04:16:52;7.13;;;5.57;;
2646;SDS011;1333;50.958;6.770;2023-04-06T04:19:18;10.00;;;6.07;;
2646;SDS011;1333;50.958;6.770;2023-04-06T04:21:44;18.00;;;5.23;;
2646;SDS011;1333;50.958;6.770;2023-04-06T04:24:10;10.13;;;5.83;;
2646;SDS011;1333;50.958;6.770;2023-04-06T04:26:36;10.33;;;6.70;;
2646;SDS011;1333;50.958;6.770;2023-04-06T04:29:03;9.80;;;6.07;;
2646;SDS011;1333;50.958;6.770;2023-04-06T04:31:29;7.80;;;5.10;;
2646;SDS011;1333;50.958;6.770;2023-04-06T04:33:54;13.40;;;5.50;;
2646;SDS011;1333;50.958;6.770;2023-04-06T04:36:20;15.70;;;6.47;;
2646;SDS011;1333;50.958;6.770;2023-04-06T04:38:46;5.70;;;5.10;;
2646;SDS011;1333;50.958;6.770;2023-04-06T04:41:11;9.17;;;5.53;;
2646;SDS011;1333;50.958;6.770;2023-04-06T04:43:37;7.47;;;5.00;;
2646;SDS011;1333;50.958;6.770;2023-04-06T04:46:03;8.67;;;5.40;;
2646;SDS011;1333;50.958;6.770;2023-04-06T04:48:29;11.73;;;7.53;;
2646;SDS011;1333;50.958;6.770;2023-04-06T04:50:55;10.13;;;5.83;;
2646;SDS011;1333;50.958;6.770;2023-04-06T04:53:21;11.07;;;5.90;;
2646;SDS011;1333;50.958;6.770;2023-04-06T04:55:46;8.83;;;6.27;;
2646;SDS011;1333;50.958;6.770;2023-04-06T04:58:12;12.40;;;6.43;;
2646;SDS011;1333;50.958;6.770;2023-04-06T05:00:41;10.00;;;6.23;;
2646;SDS011;1333;50.958;6.770;2023-04-06T05:03:11;12.77;;;6.50;;
2646;SDS011;1333;50.958;6.770;2023-04-06T05:05:43;7.90;;;5.23;;
2646;SDS011;1333;50.958;6.770;2023-04-06T05:08:09;10.77;;;6.67;;
2646;SDS011;1333;50.958;6.770;2023-04-06T05:10:34;9.80;;;6.53;;
2646;SDS011;1333;50.958;6.770;2023-04-06T05:13:00;10.37;;;6.87;;
2646;SDS011;1333;50.958;6.770;2023-04-06T05:15:26;9.60;;;5.83;;
2646;SDS011;1333;50.958;6.770;2023-04-06T05:17:51;7.20;;;5.23;;
2646;SDS011;1333;50.958;6.770;2023-04-06T05:20:17;10.70;;;5.60;;
2646;SDS011;1333;50.958;6.770;2023-04-06T05:22:42;12.30;;;6.40;;
2646;SDS011;1333;50.958;6.770;2023-04-06T05:25:08;13.30;;;7.40;;
2646;SDS011;1333;50.958;6.770;2023-04-06T05:27:34;12.50;;;7.50;;
2646;SDS011;1333;50.958;6.770;2023-04-06T05:29:59;9.30;;;6.13;;
2646;SDS011;1333;50.958;6.770;2023-04-06T05:32:25;8.83;;;6.40;;
2646;SDS011;1333;50.958;6.770;2023-04-06T05:34:51;10.27;;;6.67;;
2646;SDS011;1333;50.958;6.770;2023-04-06T05:37:17;9.47;;;7.60;;
2646;SDS011;1333;50.958;6.770;2023-04-06T05:39:43;12.70;;;7.57;;
2646;SDS011;1333;50.958;6.770;2023-04-06T05:42:08;12.10;;;7.50;;
2646;SDS011;1333;50.958;6.770;2023-04-06T05:44:36;12.03;;;7.67;;
2646;SDS011;1333;50.958;6.770;2023-04-06T05:47:02;15.57;;;7.13;;
2646;SDS011;1333;50.958;6.770;2023-04-06T05:49:27;15.47;;;8.60;;
2646;SDS011;1333;50.958;6.770;2023-04-06T05:51:53;19.60;;;8.20;;
2646;SDS011;1333;50.958;6.770;2023-04-06T05:54:18;15.20;;;8.03;;
2646;SDS011;1333;50.958;6.770;2023-04-06T05:56:44;12.47;;;8.13;;
2646;SDS011;1333;50.958;6.770;2023-04-06T05:59:10;12.47;;;7.60;;
2646;SDS011;1333;50.958;6.770;2023-04-06T06:01:35;23.43;;;8.57;;
2646;SDS011;1333;50.958;6.770;2023-04-06T06:04:01;13.70;;;7.40;;
2646;SDS011;1333;50.958;6.770;2023-04-06T06:06:27;12.27;;;8.20;;
2646;SDS011;1333;50.958;6.770;2023-04-06T06:08:55;9.40;;;6.10;;
2646;SDS011;1333;50.958;6.770;2023-04-06T06:11:23;7.67;;;6.30;;
2646;SDS011;1333;50.958;6.770;2023-04-06T06:13:49;13.40;;;7.80;;
2646;SDS011;1333;50.958;6.770;2023-04-06T06:16:15;11.10;;;6.90;;
2646;SDS011;1333;50.958;6.770;2023-04-06T06:18:41;12.27;;;7.77;;
2646;SDS011;1333;50.958;6.770;2023-04-06T06:21:07;13.40;;;7.63;;
2646;SDS011;1333;50.958;6.770;2023-04-06T06:23:32;10.03;;;6.73;;
2646;SDS011;1333;50.958;6.770;2023-04-06T06:25:58;8.70;;;7.70;;
2646;SDS011;1333;50.958;6.770;2023-04-06T06:28:24;11.37;;;7.47;;
2646;SDS011;1333;50.958;6.770;2023-04-06T06:30:50;14.20;;;7.43;;
2646;SDS011;1333;50.958;6.770;2023-04-06T06:33:16;10.63;;;7.17;;
2646;SDS011;1333;50.958;6.770;2023-04-06T06:35:41;9.43;;;6.60;;
2646;SDS011;1333;50.958;6.770;2023-04-06T06:38:07;9.67;;;6.90;;
2646;SDS011;1333;50.958;6.770;2023-04-06T06:40:33;11.47;;;7.60;;
2646;SDS011;1333;50.958;6.770;2023-04-06T06:42:58;12.67;;;6.73;;
2646;SDS011;1333;50.958;6.770;2023-04-06T06:45:24;10.03;;;7.07;;
2646;SDS011;1333;50.958;6.770;2023-04-06T06:47:50;8.27;;;7.10;;
2646;SDS011;1333;50.958;6.770;2023-04-06T06:50:16;8.20;;;7.20;;
2646;SDS011;1333;50.958;6.770;2023-04-06T06:52:41;15.13;;;8.23;;
2646;SDS011;1333;50.958;6.770;2023-04-06T06:55:08;8.30;;;7.00;;
2646;SDS011;1333;50.958;6.770;2023-04-06T06:57:34;9.83;;;7.30;;
2646;SDS011;1333;50.958;6.770;2023-04-06T07:00:00;9.80;;;6.80;;
2646;SDS011;1333;50.958;6.770;2023-04-06T07:02:26;9.07;;;7.67;;
2646;SDS011;1333;50.958;6.770;2023-04-06T07:04:51;10.87;;;7.60;;
2646;SDS011;1333;50.958;6.770;2023-04-06T07:07:17;10.70;;;7.03;;
2646;SDS011;1333;50.958;6.770;2023-04-06T07:09:42;7.80;;;7.00;;
2646;SDS011;1333;50.958;6.770;2023-04-06T07:12:08;8.97;;;6.97;;
2646;SDS011;1333;50.958;6.770;2023-04-06T07:14:33;7.90;;;6.80;;
2646;SDS011;1333;50.958;6.770;2023-04-06T07:16:59;12.53;;;7.97;;
2646;SDS011;1333;50.958;6.770;2023-04-06T07:19:25;11.00;;;8.23;;
2646;SDS011;1333;50.958;6.770;2023-04-06T07:21:50;10.13;;;8.03;;
2646;SDS011;1333;50.958;6.770;2023-04-06T07:24:16;6.93;;;6.23;;
2646;SDS011;1333;50.958;6.770;2023-04-06T07:26:42;9.90;;;6.80;;
2646;SDS011;1333;50.958;6.770;2023-04-06T07:29:07;8.53;;;7.60;;
2646;SDS011;1333;50.958;6.770;2023-04-06T07:31:33;11.17;;;7.20;;
2646;SDS011;1333;50.958;6.770;2023-04-06T07:34:00;8.63;;;7.00;;
2646;SDS011;1333;50.958;6.770;2023-04-06T07:36:26;12.67;;;7.07;;
2646;SDS011;1333;50.958;6.770;2023-04-06T07:38:51;12.60;;;7.70;;
2646;SDS011;1333;50.958;6.770;2023-04-06T07:41:17;9.13;;;7.20;;
2646;SDS011;1333;50.958;6.770;2023-04-06T07:43:42;10.90;;;7.50;;
2646;SDS011;1333;50.958;6.770;2023-04-06T07:46:08;11.00;;;7.00;;
2646;SDS011;1333;50.958;6.770;2023-04-06T07:48:34;17.20;;;8.23;;
2646;SDS011;1333;50.958;6.770;2023-04-06T07:51:06;9.13;;;7.37;;
2646;SDS011;1333;50.958;6.770;2023-04-06T07:53:32;8.60;;;6.60;;
2646;SDS011;1333;50.958;6.770;2023-04-06T07:55:58;12.17;;;6.63;;
2646;SDS011;1333;50.958;6.770;2023-04-06T07:58:24;15.90;;;7.47;;
2646;SDS011;1333;50.958;6.770;2023-04-06T08:00:49;12.03;;;7.33;;
2646;SDS011;1333;50.958;6.770;2023-04-06T08:03:15;9.50;;;7.57;;
2646;SDS011;1333;50.958;6.770;2023-04-06T08:05:41;10.53;;;8.47;;
2646;SDS011;1333;50.958;6.770;2023-04-06T08:08:07;10.77;;;7.27;;
2646;SDS011;1333;50.958;6.770;2023-04-06T08:10:33;10.73;;;7.70;;
2646;SDS011;1333;50.958;6.770;2023-04-06T08:12:59;10.90;;;8.27;;
2646;SDS011;1333;50.958;6.770;2023-04-06T08:15:25;10.07;;;8.07;;
2646;SDS011;1333;50.958;6.770;2023-04-06T08:17:51;9.27;;;7.90;;
2646;SDS011;1333;50.958;6.770;2023-04-06T08:20:16;10.60;;;8.53;;
2646;SDS011;1333;50.958;6.770;2023-04-06T08:22:42;10.07;;;7.73;;
2646;SDS011;1333;50.958;6.770;2023-04-06T08:25:08;17.17;;;7.87;;
2646;SDS011;1333;50.958;6.770;2023-04-06T08:27:34;12.30;;;7.70;;
2646;SDS011;1333;50.958;6.770;2023-04-06T08:29:59;8.87;;;7.57;;
2646;SDS011;1333;50.958;6.770;2023-04-06T08:32:26;8.40;;;7.23;;
2646;SDS011;1333;50.958;6.770;2023-04-06T08:34:54;14.60;;;8.80;;
2646;SDS011;1333;50.958;6.770;2023-04-06T08:37:21;9.50;;;7.93;;
2646;SDS011;1333;50.958;6.770;2023-04-06T08:39:46;8.63;;;7.50;;
2646;SDS011;1333;50.958;6.770;2023-04-06T08:42:12;12.10;;;8.13;;
2646;SDS011;1333;50.958;6.770;2023-04-06T08:44:47;8.63;;;7.73;;
2646;SDS011;1333;50.958;6.770;2023-04-06T08:47:16;11.57;;;8.67;;
2646;SDS011;1333;50.958;6.770;2023-04-06T08:49:41;10.53;;;8.27;;
2646;SDS011;1333;50.958;6.770;2023-04-06T08:52:08;11.37;;;7.87;;
2646;SDS011;1333;50.958;6.770;2023-04-06T08:54:36;8.37;;;7.40;;
2646;SDS011;1333;50.958;6.770;2023-04-06T08:57:02;9.47;;;8.10;;
2646;SDS011;1333;50.958;6.770;2023-04-06T08:59:28;11.07;;;8.23;;
2646;SDS011;1333;50.958;6.770;2023-04-06T09:01:53;12.73;;;7.10;;
2646;SDS011;1333;50.958;6.770;2023-04-06T09:04:20;16.07;;;7.30;;
2646;SDS011;1333;50.958;6.770;2023-04-06T09:06:46;9.80;;;7.63;;
2646;SDS011;1333;50.958;6.770;2023-04-06T09:09:12;9.93;;;8.70;;
2646;SDS011;1333;50.958;6.770;2023-04-06T09:11:49;10.50;;;8.63;;
2646;SDS011;1333;50.958;6.770;2023-04-06T09:14:16;11.43;;;8.10;;
2646;SDS011;1333;50.958;6.770;2023-04-06T09:16:42;11.13;;;8.20;;
2646;SDS011;1333;50.958;6.770;2023-04-06T09:19:10;16.67;;;8.40;;
2646;SDS011;1333;50.958;6.770;2023-04-06T09:21:37;9.57;;;7.40;;
2646;SDS011;1333;50.958;6.770;2023-04-06T09:24:05;10.70;;;8.23;;
2646;SDS011;1333;50.958;6.770;2023-04-06T09:26:32;12.77;;;8.30;;
2646;SDS011;1333;50.958;6.770;2023-04-06T09:29:09;11.20;;;7.57;;
2646;SDS011;1333;50.958;6.770;2023-04-06T09:31:34;14.83;;;7.90;;
2646;SDS011;1333;50.958;6.770;2023-04-06T09:34:00;13.83;;;7.53;;
2646;SDS011;1333;50.958;6.770;2023-04-06T09:36:34;15.07;;;9.40;;
2646;SDS011;1333;50.958;6.770;2023-04-06T09:39:03;11.07;;;8.03;;
2646;SDS011;1333;50.958;6.770;2023-04-06T09:41:30;16.47;;;8.67;;
2646;SDS011;1333;50.958;6.770;2023-04-06T09:44:04;15.40;;;8.33;;
2646;SDS011;1333;50.958;6.770;2023-04-06T09:46:38;12.80;;;8.30;;
2646;SDS011;1333;50.958;6.770;2023-04-06T09:49:06;11.80;;;8.70;;
2646;SDS011;1333;50.958;6.770;2023-04-06T09:51:45;13.13;;;9.90;;
2646;SDS011;1333;50.958;6.770;2023-04-06T09:54:21;12.10;;;9.50;;
2646;SDS011;1333;50.958;6.770;2023-04-06T09:56:52;15.43;;;8.83;;
2646;SDS011;1333;50.958;6.770;2023-04-06T10:02:34;11.27;;;8.90;;
2646;SDS011;1333;50.958;6.770;2023-04-06T10:08:09;9.40;;;7.30;;
2646;SDS011;1333;50.958;6.770;2023-04-06T10:10:36;15.47;;;8.00;;
2646;SDS011;1333;50.958;6.770;2023-04-06T10:13:03;14.20;;;8.57;;
2646;SDS011;1333;50.958;6.770;2023-04-06T10:15:30;10.17;;;6.93;;
2646;SDS011;1333;50.958;6.770;2023-04-06T10:17:56;14.33;;;9.30;;
2646;SDS011;1333;50.958;6.770;2023-04-06T10:20:30;11.00;;;9.60;;
2646;SDS011;1333;50.958;6.770;2023-04-06T10:23:23;12.57;;;8.57;;
2646;SDS011;1333;50.958;6.770;2023-04-06T10:26:01;11.90;;;7.97;;
2646;SDS011;1333;50.958;6.770;2023-04-06T10:28:30;14.50;;;8.60;;
2646;SDS011;1333;50.958;6.770;2023-04-06T10:31:04;10.20;;;7.20;;
2646;SDS011;1333;50.958;6.770;2023-04-06T10:33:30;16.07;;;8.07;;
2646;SDS011;1333;50.958;6.770;2023-04-06T10:35:56;13.87;;;9.00;;
2646;SDS011;1333;50.958;6.770;2023-04-06T10:38:43;11.10;;;8.77;;
2646;SDS011;1333;50.958;6.770;2023-04-06T10:41:11;11.87;;;9.20;;
2646;SDS011;1333;50.958;6.770;2023-04-06T10:43:38;12.00;;;8.37;;
2646;SDS011;1333;50.958;6.770;2023-04-06T10:46:06;9.53;;;6.50;;
2646;SDS011;1333;50.958;6.770;2023-04-06T10:48:36;11.70;;;7.40;;
2646;SDS011;1333;50.958;6.770;2023-04-06T10:51:07;13.50;;;8.90;;
2646;SDS011;1333;50.958;6.770;2023-04-06T10:53:36;11.00;;;7.80;;
2646;SDS011;1333;50.958;6.770;2023-04-06T10:56:02;12.40;;;7.70;;
2646;SDS011;1333;50.958;6.770;2023-04-06T10:58:28;12.33;;;8.03;;
2646;SDS011;1333;50.958;6.770;2023-04-06T11:00:55;13.57;;;7.63;;
2646;SDS011;1333;50.958;6.770;2023-04-06T11:03:21;14.00;;;8.07;;
2646;SDS011;1333;50.958;6.770;2023-04-06T11:05:47;12.13;;;7.83;;
2646;SDS011;1333;50.958;6.770;2023-04-06T11:08:24;11.10;;;7.03;;
2646;SDS011;1333;50.958;6.770;2023-04-06T11:10:50;10.93;;;7.40;;
2646;SDS011;1333;50.958;6.770;2023-04-06T11:13:15;15.07;;;8.40;;
2646;SDS011;1333;50.958;6.770;2023-04-06T11:15:42;10.70;;;7.93;;
2646;SDS011;1333;50.958;6.770;2023-04-06T11:18:07;11.10;;;7.23;;
2646;SDS011;1333;50.958;6.770;2023-04-06T11:20:33;14.30;;;8.00;;
2646;SDS011;1333;50.958;6.770;2023-04-06T11:22:59;14.13;;;7.73;;
2646;SDS011;1333;50.958;6.770;2023-04-06T11:25:24;11.97;;;7.57;;
2646;SDS011;1333;50.958;6.770;2023-04-06T11:27:56;10.83;;;7.13;;
2646;SDS011;1333;50.958;6.770;2023-04-06T11:30:21;12.57;;;7.70;;
2646;SDS011;1333;50.958;6.770;2023-04-06T11:32:47;10.80;;;7.83;;
2646;SDS011;1333;50.958;6.770;2023-04-06T11:35:20;12.17;;;8.10;;
2646;SDS011;1333;50.958;6.770;2023-04-06T11:37:48;8.30;;;6.73;;
2646;SDS011;1333;50.958;6.770;2023-04-06T11:40:14;9.20;;;6.77;;
2646;SDS011;1333;50.958;6.770;2023-04-06T11:42:40;9.20;;;6.50;;
2646;SDS011;1333;50.958;6.770;2023-04-06T11:45:07;10.17;;;6.73;;
2646;SDS011;1333;50.958;6.770;2023-04-06T11:47:34;8.80;;;6.33;;
2646;SDS011;1333;50.958;6.770;2023-04-06T11:50:07;10.10;;;6.43;;
2646;SDS011;1333;50.958;6.770;2023-04-06T11:52:34;12.00;;;6.30;;
2646;SDS011;1333;50.958;6.770;2023-04-06T11:55:09;12.00;;;7.03;;
2646;SDS011;1333;50.958;6.770;2023-04-06T11:57:36;12.90;;;7.10;;
2646;SDS011;1333;50.958;6.770;2023-04-06T12:00:02;16.03;;;8.40;;
2646;SDS011;1333;50.958;6.770;2023-04-06T12:02:28;14.77;;;8.50;;
2646;SDS011;1333;50.958;6.770;2023-04-06T12:04:53;11.83;;;7.63;;
2646;SDS011;1333;50.958;6.770;2023-04-06T12:07:19;10.30;;;7.27;;
2646;SDS011;1333;50.958;6.770;2023-04-06T12:09:44;10.27;;;7.40;;
2646;SDS011;1333;50.958;6.770;2023-04-06T12:12:10;10.27;;;6.87;;
2646;SDS011;1333;50.958;6.770;2023-04-06T12:14:35;9.33;;;6.93;;
2646;SDS011;1333;50.958;6.770;2023-04-06T12:17:01;11.27;;;6.87;;
2646;SDS011;1333;50.958;6.770;2023-04-06T12:19:27;9.43;;;6.70;;
2646;SDS011;1333;50.958;6.770;2023-04-06T12:21:52;8.97;;;5.90;;
2646;SDS011;1333;50.958;6.770;2023-04-06T12:24:19;11.87;;;6.00;;
2646;SDS011;1333;50.958;6.770;2023-04-06T12:26:44;8.50;;;5.90;;
2646;SDS011;1333;50.958;6.770;2023-04-06T12:29:10;13.67;;;6.17;;
2646;SDS011;1333;50.958;6.770;2023-04-06T12:31:38;9.20;;;6.23;;
2646;SDS011;1333;50.958;6.770;2023-04-06T12:34:05;8.50;;;6.50;;
2646;SDS011;1333;50.958;6.770;2023-04-06T12:36:31;8.83;;;6.20;;
2646;SDS011;1333;50.958;6.770;2023-04-06T12:38:57;7.10;;;5.30;;
2646;SDS011;1333;50.958;6.770;2023-04-06T12:41:23;5.70;;;4.67;;
2646;SDS011;1333;50.958;6.770;2023-04-06T12:43:49;7.47;;;5.27;;
2646;SDS011;1333;50.958;6.770;2023-04-06T12:46:16;11.53;;;4.80;;
2646;SDS011;1333;50.958;6.770;2023-04-06T12:48:42;5.47;;;4.20;;
2646;SDS011;1333;50.958;6.770;2023-04-06T12:51:08;4.47;;;3.77;;
2646;SDS011;1333;50.958;6.770;2023-04-06T12:53:34;4.30;;;3.90;;
2646;SDS011;1333;50.958;6.770;2023-04-06T12:56:00;7.83;;;3.93;;
2646;SDS011;1333;50.958;6.770;2023-04-06T12:58:26;5.50;;;4.10;;
2646;SDS011;1333;50.958;6.770;2023-04-06T13:00:53;6.23;;;5.47;;
2646;SDS011;1333;50.958;6.770;2023-04-06T13:03:19;6.60;;;5.50;;
2646;SDS011;1333;50.958;6.770;2023-04-06T13:05:49;7.33;;;4.90;;
2646;SDS011;1333;50.958;6.770;2023-04-06T13:08:16;4.83;;;4.07;;
2646;SDS011;1333;50.958;6.770;2023-04-06T13:10:44;7.47;;;4.83;;
2646;SDS011;1333;50.958;6.770;2023-04-06T13:13:12;6.57;;;4.80;;
2646;SDS011;1333;50.958;6.770;2023-04-06T13:15:37;10.10;;;5.13;;
2646;SDS011;1333;50.958;6.770;2023-04-06T13:18:03;8.33;;;5.27;;
2646;SDS011;1333;50.958;6.770;2023-04-06T13:20:29;7.00;;;5.10;;
2646;SDS011;1333;50.958;6.770;2023-04-06T13:22:55;7.10;;;5.37;;
2646;SDS011;1333;50.958;6.770;2023-04-06T13:25:20;4.50;;;4.07;;
2646;SDS011;1333;50.958;6.770;2023-04-06T13:27:46;6.00;;;3.90;;
2646;SDS011;1333;50.958;6.770;2023-04-06T13:30:13;5.50;;;4.37;;
2646;SDS011;1333;50.958;6.770;2023-04-06T13:32:39;6.37;;;4.17;;
2646;SDS011;1333;50.958;6.770;2023-04-06T13:35:05;7.07;;;5.00;;
2646;SDS011;1333;50.958;6.770;2023-04-06T13:37:32;11.63;;;4.70;;
2646;SDS011;1333;50.958;6.770;2023-04-06T13:39:58;7.83;;;5.47;;
2646;SDS011;1333;50.958;6.770;2023-04-06T13:42:24;7.93;;;5.63;;
2646;SDS011;1333;50.958;6.770;2023-04-06T13:44:49;11.70;;;5.10;;
2646;SDS011;1333;50.958;6.770;2023-04-06T13:47:16;6.33;;;4.50;;
2646;SDS011;1333;50.958;6.770;2023-04-06T13:49:42;7.40;;;4.60;;
2646;SDS011;1333;50.958;6.770;2023-04-06T13:52:08;6.93;;;4.57;;
2646;SDS011;1333;50.958;6.770;2023-04-06T13:54:35;9.70;;;5.93;;
2646;SDS011;1333;50.958;6.770;2023-04-06T13:57:01;9.83;;;6.40;;
2646;SDS011;1333;50.958;6.770;2023-04-06T13:59:36;7.93;;;5.30;;
2646;SDS011;1333;50.958;6.770;2023-04-06T14:02:02;10.33;;;6.10;;
2646;SDS011;1333;50.958;6.770;2023-04-06T14:04:29;10.87;;;6.10;;
2646;SDS011;1333;50.958;6.770;2023-04-06T14:06:55;7.60;;;5.10;;
2646;SDS011;1333;50.958;6.770;2023-04-06T14:09:23;7.50;;;5.63;;
2646;SDS011;1333;50.958;6.770;2023-04-06T14:11:49;9.20;;;5.30;;
2646;SDS011;1333;50.958;6.770;2023-04-06T14:14:15;10.60;;;4.70;;
2646;SDS011;1333;50.958;6.770;2023-04-06T14:16:41;8.33;;;5.60;;
2646;SDS011;1333;50.958;6.770;2023-04-06T14:19:11;8.20;;;4.57;;
2646;SDS011;1333;50.958;6.770;2023-04-06T14:21:38;8.97;;;4.50;;
2646;SDS011;1333;50.958;6.770;2023-04-06T14:24:04;5.50;;;4.10;;
2646;SDS011;1333;50.958;6.770;2023-04-06T14:26:34;3.50;;;3.20;;
2646;SDS011;1333;50.958;6.770;2023-04-06T14:29:00;6.13;;;3.77;;
2646;SDS011;1333;50.958;6.770;2023-04-06T14:31:26;7.13;;;4.10;;
2646;SDS011;1333;50.958;6.770;2023-04-06T14:33:52;5.70;;;4.60;;
2646;SDS011;1333;50.958;6.770;2023-04-06T14:36:18;7.90;;;4.10;;
2646;SDS011;1333;50.958;6.770;2023-04-06T14:38:43;7.30;;;4.33;;
2646;SDS011;1333;50.958;6.770;2023-04-06T14:41:15;8.03;;;4.10;;
2646;SDS011;1333;50.958;6.770;2023-04-06T14:43:42;9.97;;;5.23;;
2646;SDS011;1333;50.958;6.770;2023-04-06T14:46:07;5.97;;;3.80;;
2646;SDS011;1333;50.958;6.770;2023-04-06T14:48:34;7.10;;;4.77;;
2646;SDS011;1333;50.958;6.770;2023-04-06T14:51:00;7.20;;;5.63;;
2646;SDS011;1333;50.958;6.770;2023-04-06T14:53:25;6.73;;;3.80;;
2646;SDS011;1333;50.958;6.770;2023-04-06T14:55:51;7.90;;;4.73;;
2646;SDS011;1333;50.958;6.770;2023-04-06T14:58:20;7.90;;;5.20;;
2646;SDS011;1333;50.958;6.770;2023-04-06T15:00:47;6.70;;;5.00;;
2646;SDS011;1333;50.958;6.770;2023-04-06T15:03:14;11.30;;;6.00;;
2646;SDS011;1333;50.958;6.770;2023-04-06T15:05:40;7.13;;;5.20;;
2646;SDS011;1333;50.958;6.770;2023-04-06T15:08:06;7.47;;;5.77;;
2646;SDS011;1333;50.958;6.770;2023-04-06T15:10:34;10.87;;;6.40;;